GABS

Senou Airport

Senou, Mali
TAF GABS 210515Z 2106/2212 26008KT 9999 SCT020 PROB40 TEMPO 2106/2111 4500 SHRA BKN020 FEW033CB PROB40 TEMPO 2114/2120 VRB16G30KT 4000 TSRA SCT020 SCT033CB TEMPO 2120/2206 08020G40KT 3000 TSRA BKN020 SCT033CB
Issued Valid From Valid To
Jul-21 @ 05:15 UTC
(5 hours ago)
Jul-21 @ 06:00 UTC
(4 hours ago)
Jul-22 @ 12:00 UTC
(-1 days ago)
Jul-21 @ 06:00 to Jul-22 @ 12:00
TAF GABS 210515Z 2106/2212 26008KT 9999 SCT020
Wind Visibility Clouds
260° at 8 knots 10,000+ meters
  • Scattered at 2,000' AGL
Temporary  (Probability 40%) Jul-21 @ 06:00 to Jul-21 @ 11:00
PROB40 TEMPO 2106/2111 4500 SHRA BKN020 FEW033CB
Visibility Clouds Conditions
4,506 meters
  • Broken at 2,000' AGL
  • Few at 3,300' AGL
  • Rain
Temporary  (Probability 40%) Jul-21 @ 14:00 to Jul-21 @ 20:00
PROB40 TEMPO 2114/2120 VRB16G30KT 4000 TSRA SCT020 SCT033CB
Wind Visibility Clouds Conditions
Variable at 16 knots
 Gusting to 30 knots
4,007 meters
  • Scattered at 2,000' AGL
  • Scattered at 3,300' AGL
  • Thunderstorm
  • Rain
Temporary Jul-21 @ 20:00 to Jul-22 @ 06:00
TEMPO 2120/2206 08020G40KT 3000 TSRA BKN020 SCT033CB
Wind Visibility Clouds Conditions
80° at 20 knots
 Gusting to 40 knots
2,993 meters
  • Broken at 2,000' AGL
  • Scattered at 3,300' AGL
  • Thunderstorm
  • Rain
TAF GABS 210515Z 2106/2212 26008KT 9999 SCT020 PROB40 TEMPO 2106/2111 4500 SHRA BKN020 FEW033CB PROB40 TEMPO 2114/2120 VRB16G30KT 4000 TSRA SCT020 SCT033CB TEMPO 2120/2206 08020G40KT 3000 TSRA BKN020 SCT033CB
Issued Jul-21 @ 05:15 UTC
(5 hours ago)
Valid From Jul-21 @ 06:00 UTC
(4 hours ago)
Valid To Jul-22 @ 12:00 UTC
(-1 days ago)
Jul-21 @ 06:00 - Jul-22 @ 12:00
Wind Visibility
260° at 8 knots 10,000+ meters
Clouds
  • Scattered at 2,000' AGL
Probability 40% Temporary Jul-21 @ 06:00 - Jul-21 @ 11:00
Clouds
  • Broken at 2,000' AGL
  • Few at 3,300' AGL
Conditions
  • Rain
Probability 40% Temporary Jul-21 @ 14:00 - Jul-21 @ 20:00
Wind Visibility
Variable at 16 knots
 Gusting to 30 knots
4,007 meters
Clouds
  • Scattered at 2,000' AGL
  • Scattered at 3,300' AGL
Conditions
  • Thunderstorm
  • Rain
Temporary Jul-21 @ 20:00 - Jul-22 @ 06:00
Wind Visibility
80° at 20 knots
 Gusting to 40 knots
2,993 meters
Clouds
  • Broken at 2,000' AGL
  • Scattered at 3,300' AGL
Conditions
  • Thunderstorm
  • Rain